Check out our new BloomSky Weather System.

Active alerts


No alerts


Thunder radar  blitzortung!


Rain radar more information rain snow radar


Visit our other weather sites:

Template documentation
and downloads

And another site



Weather Underground History page Text

Daily Summary for February 21, 2017 Units:  Metric    English   Both
« Previous Day
Next Day »
Daily Weekly Monthly Yearly Custom
  High: Low: Average:
Temperature: 24.1 °C 12.1 °C 17.3 °C
Dew Point: 16.4 °C 10.5 °C 13.4 °C
Humidity: 100 % 45 % 81 %
Wind Speed: 27.4 km/h 0 km/h 2.9 km/h
Wind Gust: 30.6 km/h - -
Wind:- - West
Pressure: 1014.4 hPa 1011.4 hPa -
Precipitation: 0.25 mm    
Historical Graphs
 
 
Tabular Data for February 21, 2017
Time Temperature Dew Point Pressure Wind Wind Speed Wind Gust Humidity Rainfall Rate (Hourly)
00:04 15.1 °C 15.1 °C 1014.4 hPa South 1.6 km/h 8 km/h 100 % 0 mm
00:09 15 °C 15 °C 1014.4 hPa SSW 6.4 km/h 8 km/h 100 % 0 mm
00:14 14.9 °C 14.9 °C 1014.4 hPa South 1.6 km/h 8 km/h 100 % 0 mm
00:19 14.9 °C 14.9 °C 1014.4 hPa South 4.8 km/h 8 km/h 100 % 0 mm
00:24 14.8 °C 14.8 °C 1014.4 hPa SSE 3.2 km/h 6.4 km/h 100 % 0 mm
00:29 14.8 °C 14.8 °C 1014.4 hPa SSE 1.6 km/h 6.4 km/h 100 % 0.25 mm
00:34 14.7 °C 14.7 °C 1014.4 hPa SE 1.6 km/h 6.4 km/h 100 % 0.25 mm
00:39 14.7 °C 14.7 °C 1014.4 hPa SE 1.6 km/h 4.8 km/h 100 % 0.25 mm
00:44 14.7 °C 14.7 °C 1014.4 hPa SSE 1.6 km/h 4.8 km/h 100 % 0.25 mm
00:49 14.6 °C 14.6 °C 1014.4 hPa SSE 3.2 km/h 4.8 km/h 100 % 0.25 mm
00:54 14.6 °C 14.6 °C 1014.4 hPa SSE 3.2 km/h 8 km/h 100 % 0.25 mm
00:59 14.6 °C 14.6 °C 1014.4 hPa Calm   8 km/h 100 % 0.25 mm
01:04 14.5 °C 14.5 °C 1014.4 hPa Calm   8 km/h 100 % 0.25 mm
01:09 14.4 °C 14.4 °C 1014.4 hPa SSE 1.6 km/h 6.4 km/h 100 % 0.25 mm
01:14 14.4 °C 14.4 °C 1014.4 hPa Calm   6.4 km/h 100 % 0.25 mm
01:19 14.3 °C 14.3 °C 1014.4 hPa Calm   1.6 km/h 100 % 0.25 mm
01:24 14.3 °C 14.3 °C 1014.4 hPa SSE 1.6 km/h 1.6 km/h 100 % 0.25 mm
01:29 14.2 °C 14.2 °C 1014.4 hPa SSW 1.6 km/h 1.6 km/h 100 % 0 mm
01:34 14.2 °C 14.2 °C 1014.4 hPa Calm   1.6 km/h 100 % 0 mm
01:39 14.2 °C 14.2 °C 1014.4 hPa Calm   1.6 km/h 100 % 0 mm
01:45 14.1 °C 14.1 °C 1014.4 hPa Calm   1.6 km/h 100 % 0 mm
01:50 14 °C 14 °C 1014.4 hPa Calm   1.6 km/h 100 % 0 mm
01:55 14 °C 14 °C 1014.4 hPa Calm   1.6 km/h 100 % 0 mm
02:00 13.9 °C 13.9 °C 1014.4 hPa SW 1.6 km/h 3.2 km/h 100 % 0 mm
02:05 13.9 °C 13.9 °C 1014.4 hPa Calm   3.2 km/h 100 % 0 mm
02:10 14 °C 14 °C 1014.4 hPa Calm   3.2 km/h 100 % 0 mm
02:15 14.1 °C 14.1 °C 1014.1 hPa Calm   3.2 km/h 100 % 0 mm
02:20 14.1 °C 14.1 °C 1014.1 hPa Calm   3.2 km/h 100 % 0 mm
02:25 14.2 °C 14.2 °C 1014.1 hPa Calm   3.2 km/h 100 % 0 mm
02:30 14.2 °C 14.2 °C 1013.8 hPa Calm   4.8 km/h 100 % 0 mm
02:35 14.2 °C 14.2 °C 1013.8 hPa ENE 3.2 km/h 6.4 km/h 100 % 0 mm
02:40 14.2 °C 14.2 °C 1013.4 hPa East 3.2 km/h 6.4 km/h 100 % 0 mm
02:45 14.1 °C 14.1 °C 1013.4 hPa Calm   6.4 km/h 100 % 0 mm
02:50 14.1 °C 14.1 °C 1013.1 hPa Calm   4.8 km/h 100 % 0 mm
02:55 14.1 °C 14.1 °C 1013.1 hPa Calm   4.8 km/h 100 % 0 mm
03:00 14.1 °C 14.1 °C 1013.1 hPa Calm   4.8 km/h 100 % 0 mm
03:05 14.1 °C 14.1 °C 1012.8 hPa East 3.2 km/h 3.2 km/h 100 % 0 mm
03:10 14 °C 14 °C 1012.8 hPa Calm   4.8 km/h 100 % 0 mm
03:15 13.9 °C 13.9 °C 1012.8 hPa ESE 4.8 km/h 4.8 km/h 100 % 0 mm
03:20 14 °C 14 °C 1012.8 hPa Calm   4.8 km/h 100 % 0 mm
03:25 14 °C 14 °C 1012.8 hPa ESE 1.6 km/h 4.8 km/h 100 % 0 mm
03:30 14.1 °C 14.1 °C 1012.8 hPa ESE 1.6 km/h 6.4 km/h 100 % 0 mm
03:35 14.1 °C 14.1 °C 1013.1 hPa Calm   6.4 km/h 100 % 0 mm
03:40 14.2 °C 14.2 °C 1012.8 hPa South 3.2 km/h 6.4 km/h 100 % 0 mm
03:45 14.2 °C 14.2 °C 1013.1 hPa Calm   6.4 km/h 100 % 0 mm
03:50 14.2 °C 14.2 °C 1013.1 hPa South 1.6 km/h 6.4 km/h 100 % 0 mm
03:51 14.2 °C 14.2 °C 1013.1 hPa South 1.6 km/h 6.4 km/h 100 % 0 mm
03:56 14.1 °C 14.1 °C 1013.1 hPa SSE 1.6 km/h 6.4 km/h 100 % 0 mm
04:01 14.1 °C 14.1 °C 1013.1 hPa Calm   3.2 km/h 100 % 0 mm
04:06 14 °C 14 °C 1013.1 hPa Calm   3.2 km/h 100 % 0 mm
04:11 13.9 °C 13.9 °C 1013.1 hPa Calm   1.6 km/h 100 % 0 mm
04:16 13.9 °C 13.9 °C 1013.1 hPa Calm   1.6 km/h 100 % 0 mm
04:21 13.8 °C 13.8 °C 1013.1 hPa Calm   1.6 km/h 100 % 0 mm
04:26 13.8 °C 13.8 °C 1013.1 hPa Calm   1.6 km/h 100 % 0 mm
04:31 13.7 °C 13.7 °C 1013.1 hPa Calm   1.6 km/h 100 % 0 mm
04:36 13.7 °C 13.7 °C 1013.1 hPa Calm   1.6 km/h 100 % 0 mm
04:41 13.6 °C 13.6 °C 1013.4 hPa Calm     100 % 0 mm
04:46 13.6 °C 13.6 °C 1013.4 hPa Calm     100 % 0 mm
04:51 13.5 °C 13.5 °C 1013.4 hPa Calm     100 % 0 mm
04:56 13.4 °C 13.4 °C 1013.4 hPa Calm     100 % 0 mm
05:01 13.4 °C 13.4 °C 1013.4 hPa Calm     100 % 0 mm
05:06 13.5 °C 13.5 °C 1013.1 hPa Calm   1.6 km/h 100 % 0 mm
05:11 13.4 °C 13.4 °C 1013.1 hPa Calm   1.6 km/h 100 % 0 mm
05:16 13.4 °C 13.4 °C 1013.1 hPa Calm   1.6 km/h 100 % 0 mm
05:21 13.4 °C 13.4 °C 1013.1 hPa Calm     100 % 0 mm
05:26 13.4 °C 13.4 °C 1013.1 hPa Calm     100 % 0 mm
05:31 13.4 °C 13.4 °C 1013.1 hPa Calm     100 % 0 mm
05:37 13.5 °C 13.5 °C 1012.8 hPa Calm     100 % 0 mm
05:42 13.6 °C 13.6 °C 1013.1 hPa Calm   1.6 km/h 100 % 0 mm
05:47 13.6 °C 13.6 °C 1012.8 hPa Calm   1.6 km/h 100 % 0 mm
05:52 13.6 °C 13.6 °C 1012.8 hPa Calm   1.6 km/h 100 % 0 mm
05:57 13.5 °C 13.5 °C 1012.8 hPa Calm   1.6 km/h 100 % 0 mm
06:02 13.4 °C 13.4 °C 1012.8 hPa Calm   3.2 km/h 100 % 0 mm
06:07 13.3 °C 13.3 °C 1012.8 hPa Calm   3.2 km/h 100 % 0 mm
06:12 13.3 °C 13.3 °C 1012.8 hPa Calm   3.2 km/h 100 % 0 mm
06:17 13.3 °C 13.3 °C 1012.8 hPa Calm   1.6 km/h 100 % 0 mm
06:22 13.3 °C 13.3 °C 1012.8 hPa Calm   1.6 km/h 100 % 0 mm
06:27 13.3 °C 13.3 °C 1012.8 hPa Calm   1.6 km/h 100 % 0 mm
06:32 13.3 °C 13.3 °C 1012.8 hPa Calm     100 % 0 mm
06:37 13.3 °C 13.3 °C 1012.8 hPa Calm     100 % 0 mm
06:42 13.3 °C 13.3 °C 1012.8 hPa Calm     100 % 0 mm
06:47 13.2 °C 13.2 °C 1012.8 hPa Calm     100 % 0 mm
06:52 13.1 °C 13.1 °C 1012.8 hPa Calm     100 % 0 mm
06:57 13.1 °C 13.1 °C 1012.8 hPa Calm     100 % 0 mm
07:02 13.2 °C 13.2 °C 1012.8 hPa Calm     100 % 0 mm
07:07 13.2 °C 13.2 °C 1012.8 hPa Calm     100 % 0 mm
07:12 13.3 °C 13.3 °C 1012.8 hPa Calm   1.6 km/h 100 % 0 mm
07:17 13.4 °C 13.4 °C 1012.8 hPa Calm   1.6 km/h 100 % 0 mm
07:22 13.4 °C 13.4 °C 1013.1 hPa Calm   1.6 km/h 100 % 0 mm
07:27 13.6 °C 13.6 °C 1012.8 hPa Calm   1.6 km/h 100 % 0 mm
07:32 13.7 °C 13.7 °C 1013.1 hPa Calm   1.6 km/h 100 % 0 mm
07:37 13.9 °C 13.9 °C 1013.1 hPa Calm   1.6 km/h 100 % 0 mm
07:42 14.1 °C 14.1 °C 1013.1 hPa Calm   1.6 km/h 100 % 0 mm
07:47 14.3 °C 14.3 °C 1013.1 hPa Calm   1.6 km/h 100 % 0 mm
07:52 14.4 °C 14.4 °C 1013.1 hPa Calm   1.6 km/h 100 % 0 mm
07:57 14.5 °C 14.5 °C 1013.1 hPa Calm   4.8 km/h 100 % 0 mm
08:02 14.6 °C 14.6 °C 1013.1 hPa Calm   4.8 km/h 100 % 0 mm
08:07 14.6 °C 14.6 °C 1013.1 hPa Calm   4.8 km/h 100 % 0 mm
08:12 14.7 °C 14.7 °C 1013.1 hPa Calm   1.6 km/h 100 % 0 mm
08:17 14.8 °C 14.8 °C 1013.1 hPa Calm   1.6 km/h 100 % 0 mm
08:22 15.1 °C 15.1 °C 1013.1 hPa Calm   1.6 km/h 100 % 0 mm
08:27 15.4 °C 15.4 °C 1013.1 hPa West 1.6 km/h 1.6 km/h 100 % 0 mm
08:32 15.2 °C 15.2 °C 1013.1 hPa WSW 4.8 km/h 4.8 km/h 100 % 0 mm
08:37 15.2 °C 15.2 °C 1013.4 hPa WSW 1.6 km/h 4.8 km/h 100 % 0 mm
08:43 15.6 °C 15.6 °C 1013.4 hPa Calm   4.8 km/h 100 % 0 mm
08:48 15.6 °C 15.6 °C 1013.4 hPa WSW 3.2 km/h 4.8 km/h 100 % 0 mm
08:53 15.6 °C 15.6 °C 1013.4 hPa WNW 1.6 km/h 6.4 km/h 100 % 0 mm
08:58 15.4 °C 15.2 °C 1013.4 hPa NW 3.2 km/h 6.4 km/h 99 % 0 mm
09:03 15.4 °C 15.2 °C 1013.4 hPa West 1.6 km/h 6.4 km/h 99 % 0 mm
09:08 15.4 °C 15.2 °C 1013.4 hPa WNW 1.6 km/h 6.4 km/h 99 % 0 mm
09:13 15.5 °C 15.3 °C 1013.8 hPa NNW 3.2 km/h 6.4 km/h 99 % 0 mm
09:18 15.3 °C 15.1 °C 1013.8 hPa NNW 8 km/h 9.7 km/h 99 % 0 mm
09:23 15.4 °C 15.2 °C 1013.8 hPa NNW 6.4 km/h 9.7 km/h 99 % 0 mm
09:28 15.6 °C 15.4 °C 1013.8 hPa NW 1.6 km/h 9.7 km/h 99 % 0 mm
09:33 15.8 °C 15.6 °C 1013.8 hPa WNW 4.8 km/h 9.7 km/h 99 % 0 mm
09:38 15.8 °C 15.3 °C 1013.8 hPa NNE 9.7 km/h 11.3 km/h 97 % 0 mm
09:43 15.9 °C 15.3 °C 1013.8 hPa NNW 4.8 km/h 12.9 km/h 96 % 0 mm
09:48 16.2 °C 15.4 °C 1013.8 hPa WNW 6.4 km/h 12.9 km/h 95 % 0 mm
09:53 16.3 °C 15.2 °C 1013.8 hPa NW 4.8 km/h 12.9 km/h 93 % 0 mm
09:58 16.6 °C 15.3 °C 1014.1 hPa NW 4.8 km/h 11.3 km/h 92 % 0 mm
10:03 16.8 °C 15.1 °C 1014.1 hPa NW 4.8 km/h 11.3 km/h 90 % 0 mm
10:08 17 °C 15 °C 1013.8 hPa North 6.4 km/h 14.5 km/h 88 % 0 mm
10:13 17.1 °C 15.1 °C 1014.1 hPa NW 8 km/h 14.5 km/h 88 % 0 mm
10:18 17.1 °C 15.1 °C 1014.1 hPa NW 1.6 km/h 14.5 km/h 88 % 0 mm
10:23 17.3 °C 15.5 °C 1014.1 hPa NNE 1.6 km/h 14.5 km/h 89 % 0 mm
10:28 17.4 °C 15.2 °C 1014.1 hPa NW 4.8 km/h 14.5 km/h 87 % 0 mm
10:33 17.6 °C 15.4 °C 1014.1 hPa NW 3.2 km/h 11.3 km/h 87 % 0 mm
10:39 17.7 °C 15.5 °C 1014.1 hPa North 6.4 km/h 11.3 km/h 87 % 0 mm
10:44 17.9 °C 15.3 °C 1014.1 hPa SE 1.6 km/h 12.9 km/h 85 % 0 mm
10:49 18.3 °C 15.5 °C 1014.1 hPa North 3.2 km/h 14.5 km/h 84 % 0 mm
10:54 18.2 °C 15.3 °C 1014.1 hPa NW 6.4 km/h 14.5 km/h 83 % 0 mm
10:59 18.1 °C 15.5 °C 1014.1 hPa NW 3.2 km/h 14.5 km/h 85 % 0 mm
11:04 18.3 °C 15.4 °C 1014.1 hPa WNW 4.8 km/h 12.9 km/h 83 % 0 mm
11:09 18.5 °C 15.7 °C 1013.8 hPa NNW 4.8 km/h 12.9 km/h 84 % 0 mm
11:14 19.1 °C 16.3 °C 1013.8 hPa NW 6.4 km/h 11.3 km/h 84 % 0 mm
11:19 19.2 °C 15.9 °C 1013.8 hPa NW 4.8 km/h 12.9 km/h 81 % 0 mm
11:24 19.3 °C 16 °C 1013.8 hPa NNW 1.6 km/h 12.9 km/h 81 % 0 mm
11:29 19.6 °C 15.9 °C 1013.8 hPa NW 4.8 km/h 12.9 km/h 79 % 0 mm
11:34 19.6 °C 15.7 °C 1013.8 hPa NNW 8 km/h 11.3 km/h 78 % 0 mm
11:39 19.6 °C 15.7 °C 1013.8 hPa NW 4.8 km/h 16.1 km/h 78 % 0 mm
11:44 19.8 °C 15.4 °C 1013.8 hPa NNW 3.2 km/h 16.1 km/h 76 % 0 mm
11:49 19.8 °C 15.7 °C 1013.8 hPa WNW 4.8 km/h 16.1 km/h 77 % 0 mm
11:54 19.7 °C 15.8 °C 1013.8 hPa WNW 4.8 km/h 12.9 km/h 78 % 0 mm
11:59 19.7 °C 15.3 °C 1013.4 hPa West 3.2 km/h 14.5 km/h 76 % 0 mm
12:04 19.8 °C 15.9 °C 1013.4 hPa NNW 4.8 km/h 14.5 km/h 78 % 0 mm
12:09 20.2 °C 16 °C 1013.4 hPa NNW 9.7 km/h 14.5 km/h 77 % 0 mm
12:14 20.4 °C 16.2 °C 1013.4 hPa NW 3.2 km/h 12.9 km/h 77 % 0 mm
12:19 20.7 °C 15.9 °C 1013.1 hPa NNW 6.4 km/h 12.9 km/h 74 % 0 mm
12:24 20.7 °C 15.9 °C 1013.1 hPa NNW 4.8 km/h 12.9 km/h 74 % 0 mm
12:29 20.8 °C 15.8 °C 1013.1 hPa NW 8 km/h 12.9 km/h 73 % 0 mm
12:34 21 °C 16 °C 1012.8 hPa WSW 3.2 km/h 14.5 km/h 73 % 0 mm
12:40 21.3 °C 16.3 °C 1012.8 hPa NW 1.6 km/h 14.5 km/h 73 % 0 mm
12:45 21.4 °C 15.9 °C 1012.8 hPa NW 4.8 km/h 14.5 km/h 71 % 0 mm
12:50 21.5 °C 16.2 °C 1012.8 hPa North 3.2 km/h 11.3 km/h 72 % 0 mm
12:55 21.6 °C 15.7 °C 1012.8 hPa WNW 3.2 km/h 11.3 km/h 69 % 0 mm
13:00 21.8 °C 16.3 °C 1012.8 hPa NW 4.8 km/h 11.3 km/h 71 % 0 mm
13:05 22.2 °C 16.2 °C 1012.8 hPa NW 4.8 km/h 11.3 km/h 69 % 0 mm
13:10 22.2 °C 15.8 °C 1012.4 hPa WNW 6.4 km/h 14.5 km/h 67 % 0 mm
13:15 22.3 °C 15.6 °C 1012.4 hPa West 4.8 km/h 17.7 km/h 66 % 0 mm
13:20 22.6 °C 16.4 °C 1012.1 hPa NW 6.4 km/h 17.7 km/h 68 % 0 mm
13:25 22.6 °C 16.2 °C 1012.1 hPa North 4.8 km/h 17.7 km/h 67 % 0 mm
13:30 22.8 °C 16.1 °C 1012.1 hPa NNW 8 km/h 17.7 km/h 66 % 0 mm
13:35 22.8 °C 16.1 °C 1011.7 hPa WSW 6.4 km/h 17.7 km/h 66 % 0 mm
13:40 23.1 °C 15.7 °C 1011.7 hPa NW 9.7 km/h 17.7 km/h 63 % 0 mm
13:45 23.1 °C 15.2 °C 1012.1 hPa NNW 8 km/h 16.1 km/h 61 % 0 mm
13:50 23.1 °C 15.4 °C 1011.7 hPa NW 9.7 km/h 16.1 km/h 62 % 0 mm
13:55 23.2 °C 15.3 °C 1011.7 hPa South 1.6 km/h 19.3 km/h 61 % 0 mm
14:00 23.3 °C 15.6 °C 1011.7 hPa WNW 8 km/h 19.3 km/h 62 % 0 mm
14:05 23.4 °C 14.7 °C 1011.7 hPa ENE 6.4 km/h 19.3 km/h 58 % 0 mm
14:10 23.3 °C 14.6 °C 1011.7 hPa NW 3.2 km/h 22.5 km/h 58 % 0 mm
14:15 23.4 °C 14.9 °C 1011.7 hPa NNW 8 km/h 22.5 km/h 59 % 0 mm
14:20 23.6 °C 14 °C 1011.7 hPa NNW 19.3 km/h 22.5 km/h 55 % 0 mm
14:25 23.4 °C 13.3 °C 1011.7 hPa NNW 17.7 km/h 30.6 km/h 53 % 0 mm
14:30 23.5 °C 12.8 °C 1011.4 hPa NNW 20.9 km/h 30.6 km/h 51 % 0 mm
14:35 23.5 °C 12.5 °C 1011.4 hPa NW 11.3 km/h 30.6 km/h 50 % 0 mm
14:40 23.4 °C 13 °C 1011.4 hPa NW 8 km/h 24.1 km/h 52 % 0 mm
14:45 23.6 °C 13.7 °C 1011.4 hPa NNW 6.4 km/h 20.9 km/h 54 % 0 mm
14:50 23.8 °C 13.1 °C 1011.4 hPa NW 8 km/h 17.7 km/h 51 % 0 mm
14:56 24 °C 12.3 °C 1011.4 hPa NW 11.3 km/h 25.7 km/h 48 % 0 mm
15:01 23.8 °C 11.2 °C 1011.4 hPa NNW 19.3 km/h 25.7 km/h 45 % 0 mm
15:06 23.8 °C 12.1 °C 1011.4 hPa WNW 4.8 km/h 25.7 km/h 48 % 0 mm
15:11 23.8 °C 11.2 °C 1011.4 hPa NW 16.1 km/h 22.5 km/h 45 % 0 mm
15:16 23.7 °C 12 °C 1011.4 hPa NNW 27.4 km/h 27.4 km/h 48 % 0 mm
15:21 23.7 °C 11.7 °C 1011.4 hPa NW 14.5 km/h 27.4 km/h 47 % 0 mm
15:26 23.7 °C 12.4 °C 1011.4 hPa North 4.8 km/h 27.4 km/h 49 % 0 mm
15:31 23.8 °C 12.1 °C 1011.4 hPa NW 19.3 km/h 27.4 km/h 48 % 0 mm
15:36 23.8 °C 12.4 °C 1011.4 hPa North 9.7 km/h 27.4 km/h 49 % 0 mm
15:41 23.8 °C 12.1 °C 1011.4 hPa NNW 11.3 km/h 27.4 km/h 48 % 0 mm
15:46 24 °C 12.6 °C 1011.4 hPa WNW 6.4 km/h 27.4 km/h 49 % 0 mm
15:56 23.9 °C 12.5 °C 1011.4 hPa NNW 8 km/h 19.3 km/h 49 % 0 mm
16:01 23.9 °C 12.5 °C 1011.4 hPa NW 14.5 km/h 19.3 km/h 49 % 0 mm
16:06 23.9 °C 11.9 °C 1011.4 hPa NW 14.5 km/h 19.3 km/h 47 % 0 mm
16:11 24.1 °C 11.4 °C 1011.4 hPa NW 4.8 km/h 20.9 km/h 45 % 0 mm
16:16 24.1 °C 11.8 °C 1011.4 hPa NW 6.4 km/h 20.9 km/h 46 % 0 mm
16:21 24.1 °C 11.4 °C 1011.4 hPa West 9.7 km/h 20.9 km/h 45 % 0 mm
16:26 23.9 °C 11.2 °C 1011.4 hPa WNW 14.5 km/h 20.9 km/h 45 % 0 mm
16:31 23.9 °C 11.2 °C 1011.4 hPa NW 4.8 km/h 20.9 km/h 45 % 0 mm
16:36 23.9 °C 11.2 °C 1011.4 hPa NW 4.8 km/h 19.3 km/h 45 % 0 mm
16:42 23.9 °C 11.2 °C 1011.4 hPa NW 9.7 km/h 19.3 km/h 45 % 0 mm
16:47 23.9 °C 11.6 °C 1011.4 hPa North 1.6 km/h 19.3 km/h 46 % 0 mm
16:52 24 °C 11.7 °C 1011.4 hPa NNW 8 km/h 14.5 km/h 46 % 0 mm
16:57 23.9 °C 11.6 °C 1011.4 hPa NNW 3.2 km/h 14.5 km/h 46 % 0 mm
17:02 23.8 °C 11.2 °C 1011.4 hPa West 8 km/h 19.3 km/h 45 % 0 mm
17:07 23.8 °C 11.5 °C 1011.4 hPa WSW 3.2 km/h 19.3 km/h 46 % 0 mm
17:12 23.8 °C 11.5 °C 1011.7 hPa NW 6.4 km/h 19.3 km/h 46 % 0 mm
17:17 23.8 °C 11.5 °C 1011.7 hPa WNW 6.4 km/h 14.5 km/h 46 % 0 mm
17:22 23.6 °C 11 °C 1011.7 hPa NW 8 km/h 14.5 km/h 45 % 0 mm
17:27 23.5 °C 11.2 °C 1011.7 hPa WNW 4.8 km/h 16.1 km/h 46 % 0 mm
17:32 23.4 °C 11.1 °C 1011.7 hPa NW 3.2 km/h 16.1 km/h 46 % 0 mm
17:37 23.3 °C 11.4 °C 1011.7 hPa NNW 12.9 km/h 16.1 km/h 47 % 0 mm
17:42 23.2 °C 10.9 °C 1011.7 hPa NW 9.7 km/h 19.3 km/h 46 % 0 mm
17:47 23.1 °C 11.2 °C 1011.7 hPa NNW 11.3 km/h 19.3 km/h 47 % 0 mm
17:52 22.9 °C 11 °C 1011.7 hPa WSW 6.4 km/h 19.3 km/h 47 % 0 mm
17:57 22.8 °C 10.9 °C 1011.7 hPa WNW 1.6 km/h 14.5 km/h 47 % 0 mm
18:02 22.6 °C 11 °C 1011.7 hPa North 1.6 km/h 11.3 km/h 48 % 0 mm
18:07 22.4 °C 10.8 °C 1011.7 hPa Calm   11.3 km/h 48 % 0 mm
18:12 22.2 °C 11 °C 1012.1 hPa NNW 3.2 km/h 11.3 km/h 49 % 0 mm
18:17 22.1 °C 10.9 °C 1012.1 hPa NW 3.2 km/h 11.3 km/h 49 % 0 mm
18:22 21.9 °C 11 °C 1012.1 hPa NW 4.8 km/h 9.7 km/h 50 % 0 mm
18:27 21.8 °C 10.9 °C 1012.1 hPa Calm   9.7 km/h 50 % 0 mm
18:32 21.6 °C 11 °C 1012.1 hPa WNW 1.6 km/h 9.7 km/h 51 % 0 mm
18:37 21.4 °C 11.1 °C 1012.1 hPa West 3.2 km/h 8 km/h 52 % 0 mm
18:42 21.2 °C 11 °C 1012.1 hPa Calm   4.8 km/h 52 % 0 mm
18:47 20.9 °C 11 °C 1012.1 hPa Calm   4.8 km/h 53 % 0 mm
18:52 20.7 °C 11.1 °C 1012.1 hPa Calm   4.8 km/h 54 % 0 mm
18:57 20.3 °C 11 °C 1012.1 hPa Calm   3.2 km/h 55 % 0 mm
19:02 20.1 °C 11 °C 1012.1 hPa Calm   1.6 km/h 56 % 0 mm
19:07 19.8 °C 11 °C 1012.4 hPa Calm   1.6 km/h 57 % 0 mm
19:12 19.6 °C 11.1 °C 1012.1 hPa Calm   1.6 km/h 58 % 0 mm
19:17 19.4 °C 11.2 °C 1012.1 hPa Calm   1.6 km/h 59 % 0 mm
19:22 19.2 °C 11 °C 1012.1 hPa Calm   1.6 km/h 59 % 0 mm
19:27 19 °C 11.1 °C 1012.1 hPa Calm   1.6 km/h 60 % 0 mm
19:32 18.8 °C 11.1 °C 1012.1 hPa Calm   1.6 km/h 61 % 0 mm
19:37 18.6 °C 11.2 °C 1012.4 hPa Calm   1.6 km/h 62 % 0 mm
19:42 18.3 °C 11.1 °C 1012.4 hPa Calm   1.6 km/h 63 % 0 mm
19:47 18 °C 11.1 °C 1012.4 hPa Calm   1.6 km/h 64 % 0 mm
19:52 17.8 °C 11.1 °C 1012.4 hPa Calm     65 % 0 mm
19:57 17.6 °C 11.2 °C 1012.8 hPa Calm     66 % 0 mm
20:02 17.3 °C 11.1 °C 1012.8 hPa Calm     67 % 0 mm
20:07 17.1 °C 11.4 °C 1012.8 hPa Calm     69 % 0 mm
20:12 16.9 °C 11.2 °C 1012.8 hPa Calm     69 % 0 mm
20:17 16.8 °C 11.5 °C 1012.8 hPa Calm   1.6 km/h 71 % 0 mm
20:22 16.7 °C 11.4 °C 1012.8 hPa Calm   1.6 km/h 71 % 0 mm
20:27 16.6 °C 11.5 °C 1012.8 hPa Calm   1.6 km/h 72 % 0 mm
20:32 16.5 °C 11.6 °C 1012.8 hPa Calm   1.6 km/h 73 % 0 mm
20:37 16.3 °C 11.5 °C 1013.1 hPa Calm   1.6 km/h 73 % 0 mm
20:42 16.2 °C 11.4 °C 1013.1 hPa Calm   1.6 km/h 73 % 0 mm
20:47 16 °C 11.4 °C 1012.8 hPa Calm     74 % 0 mm
20:52 15.9 °C 11.5 °C 1012.8 hPa Calm   1.6 km/h 75 % 0 mm
20:57 16 °C 11.8 °C 1012.8 hPa Calm   1.6 km/h 76 % 0 mm
21:02 16 °C 11.6 °C 1012.8 hPa Calm   1.6 km/h 75 % 0 mm
21:07 15.9 °C 11.7 °C 1012.8 hPa Calm   1.6 km/h 76 % 0 mm
21:12 15.7 °C 11.5 °C 1012.8 hPa Calm     76 % 0 mm
21:17 15.4 °C 11.2 °C 1012.8 hPa Calm     76 % 0 mm
21:22 15.2 °C 11 °C 1012.8 hPa Calm     76 % 0 mm
21:27 14.9 °C 11.1 °C 1012.8 hPa Calm     78 % 0 mm
21:32 14.7 °C 11.1 °C 1012.8 hPa Calm     79 % 0 mm
21:37 14.6 °C 11.4 °C 1012.8 hPa Calm     81 % 0 mm
21:42 14.7 °C 11.7 °C 1013.1 hPa Calm     82 % 0 mm
21:47 14.8 °C 11.8 °C 1013.1 hPa Calm     82 % 0 mm
21:52 14.9 °C 11.7 °C 1013.1 hPa Calm     81 % 0 mm
21:57 14.9 °C 11.7 °C 1013.1 hPa Calm     81 % 0 mm
22:02 14.8 °C 11.8 °C 1013.1 hPa Calm     82 % 0 mm
22:07 14.5 °C 11.5 °C 1013.1 hPa Calm     82 % 0 mm
22:12 14.2 °C 11.2 °C 1012.8 hPa Calm     82 % 0 mm
22:17 14 °C 11.2 °C 1013.1 hPa Calm     83 % 0 mm
22:22 13.7 °C 11 °C 1013.1 hPa Calm     84 % 0 mm
22:27 13.6 °C 11.3 °C 1013.1 hPa Calm     86 % 0 mm
22:32 13.7 °C 11.6 °C 1013.1 hPa Calm     87 % 0 mm
22:37 13.7 °C 11.6 °C 1013.1 hPa Calm     87 % 0 mm
22:42 13.7 °C 11.6 °C 1012.8 hPa Calm     87 % 0 mm
22:47 13.7 °C 11.6 °C 1013.1 hPa Calm     87 % 0 mm
22:52 13.6 °C 11.6 °C 1013.1 hPa Calm     88 % 0 mm
22:57 13.5 °C 11.4 °C 1013.1 hPa Calm   1.6 km/h 87 % 0 mm
23:02 13.4 °C 11.5 °C 1013.1 hPa Calm   1.6 km/h 88 % 0 mm
23:07 13.3 °C 11.4 °C 1013.1 hPa Calm   1.6 km/h 88 % 0 mm
23:12 13.2 °C 11.3 °C 1013.1 hPa Calm   1.6 km/h 88 % 0 mm
23:17 13.2 °C 11.4 °C 1013.1 hPa Calm   1.6 km/h 89 % 0 mm
23:22 13.2 °C 11.4 °C 1013.1 hPa Calm     89 % 0 mm
23:27 13.1 °C 11.3 °C 1013.1 hPa Calm     89 % 0 mm
23:32 12.8 °C 11 °C 1013.1 hPa Calm     89 % 0 mm
23:37 12.8 °C 11.2 °C 1013.1 hPa Calm     90 % 0 mm
23:43 12.6 °C 11 °C 1012.8 hPa Calm     90 % 0 mm
23:48 12.4 °C 10.8 °C 1012.8 hPa Calm     90 % 0 mm
23:53 12.2 °C 10.6 °C 1012.8 hPa Calm     90 % 0 mm
23:58 12.1 °C 10.5 °C 1012.8 hPa Calm     90 % 0 mm
Spring, Texas: Villages of Bridgestone
Compliments of Weather Underground - 2.75 mb

Script developed by  Jim McMurry - jmcmurry@mwt.net Adapted for the template by  Wim van der Kuil - Leuven-Template.eu

You find our weather info also at:

UK Metoffice

WeatherCloud

Weather Underground

Mid-South Weather Network

AWEKAS

Citizen Weather Observer Program (CWOP)

HAMweather, WeatherForYou, PWS Weather

Equipment we use:

Weather-station
Davis Vantage Vue

Weather-program
Meteohub

Weather-server
Debian 7.9 x86 (Guest)

Provider
DreamHost

Davis Vantage Vue

Meteohub

Debian 7.9 x86 (Guest)

DreamHost